createdAt,value
2017-09-29T12:57:38.804Z,56.00
2017-09-29T13:00:04.802Z,59.00
2017-09-29T13:02:30.790Z,61.20
2017-09-29T13:04:57.355Z,62.30
2017-09-29T13:07:23.379Z,62.70
2017-09-29T13:09:49.386Z,63.00
2017-09-29T13:12:15.678Z,63.10
2017-09-29T13:14:42.406Z,63.10
2017-09-29T13:17:08.419Z,63.10
2017-09-29T13:19:34.751Z,63.10
2017-09-29T13:22:00.758Z,62.90
2017-09-29T13:24:26.747Z,62.90
2017-09-29T13:26:54.189Z,62.80
2017-09-29T13:29:20.284Z,62.80
2017-09-29T13:31:47.015Z,62.90
2017-09-29T13:34:13.722Z,62.80
2017-09-29T13:36:39.735Z,62.80
2017-09-29T13:39:05.772Z,62.70
2017-09-29T13:41:32.131Z,62.70
2017-09-29T13:43:58.103Z,62.60
2017-09-29T13:46:24.082Z,62.80
2017-09-29T13:48:50.440Z,62.70
2017-09-29T13:51:16.413Z,62.60
2017-09-29T13:53:42.434Z,62.70
2017-09-29T13:56:09.077Z,62.60
2017-09-29T13:58:35.068Z,62.80
2017-09-29T14:01:01.790Z,62.80
2017-09-29T14:03:28.910Z,62.80
2017-09-29T14:05:54.882Z,62.80
2017-09-29T14:08:20.866Z,63.00
2017-09-29T14:10:47.230Z,63.20
2017-09-29T14:13:13.252Z,63.00
2017-09-29T14:15:39.285Z,63.10
2017-09-29T14:18:05.904Z,63.10
2017-09-29T14:20:32.626Z,63.00
2017-09-29T14:22:58.604Z,62.90
2017-09-29T14:25:25.055Z,63.00
2017-09-29T14:27:51.034Z,62.80
2017-09-29T14:30:17.017Z,62.80
2017-09-29T14:32:44.112Z,62.90
2017-09-29T14:35:10.127Z,62.90
2017-09-29T14:37:36.132Z,62.90
2017-09-29T14:40:03.236Z,62.90
2017-09-29T14:42:29.220Z,62.90
2017-09-29T14:44:55.198Z,62.80
2017-09-29T14:47:21.758Z,62.70
2017-09-29T14:49:47.731Z,62.80
2017-09-29T14:52:13.713Z,62.70
2017-09-29T14:54:40.374Z,62.80
2017-09-29T14:57:06.387Z,62.90
2017-09-29T14:59:32.391Z,62.90
2017-09-29T15:01:58.787Z,63.00
2017-09-29T15:04:24.812Z,64.20
2017-09-29T15:06:50.834Z,63.10
2017-09-29T15:09:17.408Z,63.10
2017-09-29T15:11:43.402Z,62.90
2017-09-29T15:14:10.148Z,62.90
2017-09-29T15:16:37.466Z,62.80
2017-09-29T15:19:03.928Z,62.80
2017-09-29T15:21:29.926Z,62.80
2017-09-29T15:23:56.287Z,62.80
2017-09-29T15:26:22.288Z,63.00
2017-09-29T15:28:49.040Z,63.20
2017-09-29T19:00:13.257Z,68.30
2017-09-29T19:02:41.513Z,69.10
2017-09-29T19:05:09.021Z,68.80
2017-09-29T19:07:36.849Z,68.60
2017-09-29T19:10:05.108Z,69.20
2017-09-29T19:12:33.387Z,69.00
2017-09-29T19:15:01.980Z,68.80
2017-09-29T19:17:30.049Z,68.70
2017-09-29T19:19:58.310Z,68.80
2017-09-29T19:22:27.122Z,68.80
2017-09-29T19:24:54.617Z,68.80
2017-09-29T19:27:22.110Z,68.70
2017-09-29T19:29:50.700Z,69.00
2017-09-29T19:32:18.973Z,68.90
2017-09-29T19:34:47.236Z,69.10
2017-09-29T19:37:15.121Z,69.00
2017-09-29T19:39:43.381Z,69.10
2017-09-29T19:42:11.644Z,70.00
2017-09-29T19:44:39.665Z,69.80
2017-09-29T19:47:07.177Z,70.30
2017-09-29T19:49:34.672Z,69.60
2017-09-29T19:52:02.520Z,69.50
2017-09-29T19:54:31.093Z,69.50
2017-09-29T19:56:59.361Z,69.40
2017-09-29T19:59:28.049Z,69.60
2017-09-29T20:01:56.304Z,69.50
2017-09-29T20:04:24.565Z,69.60
2017-09-29T20:06:52.641Z,69.60
2017-09-29T20:09:21.641Z,69.80
2017-09-29T20:11:49.141Z,69.70
2017-09-29T20:14:17.495Z,69.50
2017-09-29T20:16:45.754Z,70.10
2017-09-29T20:19:14.014Z,70.10
2017-09-29T20:21:41.805Z,70.10
2017-09-29T20:24:10.064Z,70.10
2017-09-29T20:26:38.328Z,69.60
2017-09-29T20:29:06.940Z,70.10
2017-09-29T20:31:35.204Z,70.10
2017-09-29T20:34:03.468Z,70.20
2017-09-29T20:36:31.657Z,70.10
2017-09-29T20:38:59.920Z,70.70
2017-09-29T20:41:28.184Z,70.40
2017-09-29T20:43:57.217Z,70.30
2017-09-29T20:46:24.712Z,70.10
2017-09-29T20:48:52.234Z,70.70
2017-09-29T20:51:19.997Z,70.40
2017-09-29T20:53:47.497Z,70.50
2017-09-29T20:56:14.993Z,70.30
2017-09-29T20:58:42.801Z,70.80
2017-09-29T21:01:10.294Z,70.70
2017-09-29T21:03:38.553Z,70.80
2017-09-29T21:06:06.650Z,70.80
2017-09-29T21:08:34.908Z,71.60
2017-09-29T21:11:03.176Z,71.90
2017-09-29T21:13:30.949Z,71.60
2017-09-29T21:15:59.225Z,71.60
2017-09-29T21:18:27.497Z,72.00
2017-09-29T21:20:56.098Z,72.10
2017-09-29T21:23:23.604Z,72.00
2017-09-29T21:25:51.106Z,71.80
2017-09-29T21:28:19.997Z,71.80
2017-09-29T21:30:48.260Z,72.10
2017-09-29T21:33:16.528Z,72.00
2017-09-29T21:35:45.355Z,71.90
2017-09-29T21:38:12.853Z,72.00
2017-09-29T21:40:40.353Z,72.00
2017-09-29T21:43:08.212Z,71.70
2017-09-29T21:45:35.705Z,71.90
2017-09-29T21:48:03.207Z,72.70
2017-09-29T21:50:32.005Z,72.10
2017-09-29T21:53:00.268Z,71.80
2017-09-29T21:55:28.533Z,71.70
2017-09-29T21:57:56.625Z,71.70
2017-09-29T22:00:24.885Z,71.60
2017-09-29T22:02:53.166Z,71.80
2017-09-29T22:05:22.041Z,72.00
2017-09-29T22:07:49.540Z,72.00
2017-09-29T22:10:17.040Z,72.70
2017-09-29T22:12:44.937Z,71.50
2017-09-29T22:15:13.193Z,71.60
2017-09-29T22:17:41.453Z,71.60
2017-09-29T22:20:09.254Z,71.40
2017-09-29T22:22:37.509Z,71.40
2017-09-29T22:25:05.002Z,71.30
2017-09-29T22:27:33.153Z,71.30
2017-09-29T22:30:01.414Z,71.20
2017-09-29T22:32:29.677Z,71.10
2017-09-29T22:34:57.877Z,71.10
2017-09-29T22:37:26.141Z,71.10
2017-09-29T22:39:54.408Z,71.00
2017-09-29T22:42:22.801Z,71.00
2017-09-29T22:44:51.068Z,71.00
2017-09-29T22:47:19.325Z,71.00
2017-09-29T22:49:47.125Z,71.00
2017-09-29T22:52:14.625Z,71.10
2017-09-29T22:54:42.120Z,70.90
2017-09-29T22:57:11.012Z,70.90
2017-09-29T22:59:39.273Z,70.90
2017-09-29T23:02:07.533Z,70.90
2017-09-29T23:04:36.044Z,70.90
2017-09-29T23:07:04.296Z,70.80
2017-09-29T23:09:31.791Z,70.70
2017-09-29T23:11:59.637Z,70.70
2017-09-29T23:14:27.905Z,70.70
2017-09-29T23:16:56.169Z,70.70
2017-09-29T23:19:24.253Z,70.70
2017-09-29T23:21:52.509Z,70.70
2017-09-29T23:24:20.009Z,70.70
2017-09-29T23:26:48.158Z,70.70
2017-09-29T23:29:16.413Z,70.60
2017-09-29T23:31:43.910Z,70.60
2017-09-29T23:34:11.757Z,70.50
2017-09-29T23:36:39.249Z,70.40
2017-09-29T23:39:06.741Z,70.30
2017-09-29T23:41:34.532Z,70.20
2017-09-29T23:44:02.786Z,70.10
2017-09-29T23:46:30.281Z,70.10
2017-09-29T23:48:58.651Z,69.30
2017-09-29T23:51:26.141Z,70.00
2017-09-29T23:53:53.643Z,70.00
2017-09-29T23:56:22.433Z,69.90
2017-09-29T23:58:50.690Z,69.90
